Time;durP1;ratioP1;P1;durP2;ratioP2;P2;SDS_P1;SDS_P2;PMS_P1;PMS_P2;Temp;Humidity;BMP_temperature;BMP_pressure;BME280_temperature;BME280_humidity;BME280_pressure;Samples;Min_cycle;Max_cycle;Signal;HPM_P1;HPM_P2
2022/08/26 00:02:19;;;;;;;7.70;1.55;;;20.90;99.90;;;;;;5009991;28;20497;-74
2022/08/26 00:04:45;;;;;;;7.95;1.75;;;20.90;99.90;;;;;;4999637;28;20015;-74
2022/08/26 00:07:10;;;;;;;9.10;1.73;;;20.90;99.90;;;;;;5009468;28;20391;-75
2022/08/26 00:09:36;;;;;;;11.75;1.42;;;20.90;99.90;;;;;;5005422;28;20537;-74
2022/08/26 00:12:04;;;;;;;9.65;1.70;;;20.90;99.90;;;;;;5003303;28;20450;-75
2022/08/26 00:14:29;;;;;;;9.73;1.67;;;20.90;99.90;;;;;;4995181;28;20029;-74
2022/08/26 00:16:55;;;;;;;7.07;1.67;;;20.90;99.90;;;;;;5008216;28;20026;-75
2022/08/26 00:19:21;;;;;;;9.27;1.50;;;20.90;99.90;;;;;;5008245;28;20030;-74
2022/08/26 00:21:48;;;;;;;8.85;1.60;;;20.90;99.90;;;;;;4998724;28;20038;-74
2022/08/26 00:24:13;;;;;;;8.02;1.60;;;21.00;99.90;;;;;;5004981;28;20026;-73
2022/08/26 00:26:39;;;;;;;8.20;1.40;;;21.00;99.90;;;;;;5009836;28;20093;-75
2022/08/26 00:29:05;;;;;;;8.70;1.60;;;21.00;99.90;;;;;;5010544;28;20363;-74
2022/08/26 00:31:31;;;;;;;7.28;1.60;;;21.00;99.90;;;;;;4996663;28;20026;-74
2022/08/26 00:33:57;;;;;;;6.22;1.67;;;21.00;99.90;;;;;;5010399;28;20474;-74
2022/08/26 00:36:22;;;;;;;11.60;1.60;;;20.90;99.90;;;;;;5007769;28;20033;-75
2022/08/26 00:38:48;;;;;;;9.30;1.70;;;20.90;99.90;;;;;;4993282;28;20109;-74
2022/08/26 00:41:14;;;;;;;6.07;1.60;;;20.90;99.90;;;;;;5003873;28;20050;-74
2022/08/26 00:43:39;;;;;;;7.68;1.73;;;20.90;99.90;;;;;;5010056;28;20018;-74
2022/08/26 00:46:13;;;;;;;7.80;1.30;;;20.90;99.90;;;;;;5007335;28;20030;-74
2022/08/26 00:48:42;;;;;;;12.70;1.63;;;20.90;99.90;;;;;;4993830;28;20095;-74
2022/08/26 00:51:14;;;;;;;9.45;1.40;;;20.90;99.90;;;;;;5001293;28;20064;-75
2022/08/26 00:53:45;;;;;;;4.65;1.20;;;20.90;99.90;;;;;;5009858;28;20026;-74
2022/08/26 00:56:30;;;;;;;8.15;1.42;;;20.90;99.90;;;;;;5010318;28;20087;-74
2022/08/26 00:59:00;;;;;;;7.50;1.48;;;20.90;99.90;;;;;;5010285;28;20026;-74
2022/08/26 01:01:27;;;;;;;5.28;1.55;;;20.90;99.90;;;;;;5009675;28;20018;-74
2022/08/26 01:03:54;;;;;;;11.25;1.52;;;20.80;99.90;;;;;;5005444;28;20030;-74
2022/08/26 01:06:22;;;;;;;9.40;1.58;;;20.80;99.90;;;;;;4991082;28;20449;-73
2022/08/26 01:08:47;;;;;;;8.45;1.60;;;20.80;99.90;;;;;;4998669;28;20029;-73
2022/08/26 01:11:15;;;;;;;6.95;1.38;;;20.80;99.90;;;;;;5013758;28;20030;-74
2022/08/26 01:13:41;;;;;;;10.43;1.30;;;20.80;99.90;;;;;;5006894;28;20071;-74
2022/08/26 01:16:11;;;;;;;7.47;1.38;;;20.80;99.90;;;;;;5010031;28;20026;-74
2022/08/26 01:18:39;;;;;;;7.38;1.52;;;20.80;99.90;;;;;;5003498;28;20030;-74
2022/08/26 01:21:27;;;;;;;10.95;1.52;;;20.80;99.90;;;;;;5006788;28;20049;-74
2022/08/26 01:23:54;;;;;;;10.43;1.63;;;20.70;99.90;;;;;;4994040;28;20045;-75
2022/08/26 01:26:28;;;;;;;6.25;1.63;;;20.70;99.90;;;;;;5002436;28;20026;-74
2022/08/26 01:28:57;;;;;;;6.00;1.30;;;20.70;99.90;;;;;;5011756;28;20080;-75
2022/08/26 01:31:26;;;;;;;9.73;1.95;;;20.70;99.90;;;;;;5013520;28;20049;-75
2022/08/26 01:34:00;;;;;;;10.60;1.58;;;20.60;99.90;;;;;;5013125;28;20025;-75
2022/08/26 01:36:26;;;;;;;11.18;1.80;;;20.60;99.90;;;;;;5013015;28;20033;-74
2022/08/26 01:38:52;;;;;;;10.65;1.40;;;20.60;99.90;;;;;;5013257;28;20017;-74
2022/08/26 01:41:18;;;;;;;8.30;1.58;;;20.60;99.90;;;;;;5004462;28;20050;-74
2022/08/26 01:43:48;;;;;;;8.95;1.75;;;20.60;99.90;;;;;;5003262;28;20092;-74
2022/08/26 01:46:14;;;;;;;10.77;1.60;;;20.50;99.90;;;;;;5009726;28;20467;-74
2022/08/26 01:48:42;;;;;;;6.78;1.45;;;20.50;99.90;;;;;;5011828;28;20474;-73
2022/08/26 01:51:10;;;;;;;6.45;1.40;;;20.50;99.90;;;;;;5004027;28;20027;-74
2022/08/26 01:53:37;;;;;;;10.20;1.65;;;20.50;99.90;;;;;;5010941;28;20042;-74
2022/08/26 01:56:04;;;;;;;8.20;1.80;;;20.60;99.90;;;;;;5010118;28;20125;-75
2022/08/26 01:58:38;;;;;;;7.90;1.17;;;20.60;99.90;;;;;;5008461;28;20023;-74
2022/08/26 02:01:05;;;;;;;9.70;1.40;;;20.60;99.90;;;;;;5012841;28;20133;-75
2022/08/26 02:03:31;;;;;;;11.73;1.30;;;20.60;99.90;;;;;;5011178;28;20034;-74
2022/08/26 02:06:04;;;;;;;6.38;1.50;;;20.60;99.90;;;;;;5006364;28;20051;-74
2022/08/26 02:09:02;;;;;;;6.50;1.23;;;20.60;99.90;;;;;;5007522;28;20037;-74
2022/08/26 02:11:28;;;;;;;7.72;1.50;;;20.60;99.90;;;;;;5003878;28;20468;-74
2022/08/26 02:14:00;;;;;;;5.70;1.13;;;20.60;99.90;;;;;;5007893;28;20101;-75
2022/08/26 02:16:29;;;;;;;9.00;1.40;;;20.50;99.90;;;;;;5008749;28;20502;-73
2022/08/26 02:18:55;;;;;;;4.38;1.25;;;20.50;99.90;;;;;;5012171;28;20022;-74
2022/08/26 02:21:21;;;;;;;10.02;1.35;;;20.50;99.90;;;;;;5006614;28;20085;-76
2022/08/26 02:23:47;;;;;;;7.40;1.60;;;20.50;99.90;;;;;;5012398;28;20022;-74
2022/08/26 02:26:16;;;;;;;6.72;1.45;;;20.50;99.90;;;;;;4998593;28;20025;-74
2022/08/26 02:28:57;;;;;;;7.50;1.30;;;20.50;99.90;;;;;;5004966;28;20014;-75
2022/08/26 02:31:23;;;;;;;9.23;1.50;;;20.50;99.90;;;;;;5011114;28;20036;-74
2022/08/26 02:33:49;;;;;;;6.10;1.50;;;20.50;99.90;;;;;;5001170;28;20559;-74
2022/08/26 02:36:20;;;;;;;7.68;1.50;;;20.50;99.90;;;;;;5003118;28;20093;-75
2022/08/26 02:38:46;;;;;;;8.07;1.23;;;20.50;99.90;;;;;;5008708;28;20475;-74
2022/08/26 02:41:12;;;;;;;10.80;1.33;;;20.50;99.90;;;;;;5008186;28;20104;-75
2022/08/26 02:43:37;;;;;;;6.70;1.30;;;20.50;99.90;;;;;;5003884;28;20375;-74
2022/08/26 02:46:03;;;;;;;5.93;1.40;;;20.50;99.90;;;;;;4999450;28;20096;-75
2022/08/26 02:48:29;;;;;;;3.90;1.00;;;20.50;99.90;;;;;;5011768;28;20289;-73
2022/08/26 02:50:55;;;;;;;7.93;1.30;;;20.40;99.90;;;;;;5011518;28;20051;-74
2022/08/26 02:53:20;;;;;;;5.95;1.20;;;20.40;99.90;;;;;;5003387;28;20018;-75
2022/08/26 02:55:48;;;;;;;6.30;1.27;;;20.40;99.90;;;;;;5000440;28;20375;-74
2022/08/26 02:58:14;;;;;;;6.50;0.95;;;20.50;99.90;;;;;;5008042;28;20022;-74
2022/08/26 03:00:40;;;;;;;8.65;1.27;;;20.50;99.90;;;;;;5011096;28;20371;-74
2022/08/26 03:03:06;;;;;;;8.40;1.10;;;20.50;99.90;;;;;;5011959;28;20045;-74
2022/08/26 03:05:33;;;;;;;5.00;1.13;;;20.50;99.90;;;;;;4997846;28;20413;-75
2022/08/26 03:07:59;;;;;;;9.57;1.38;;;20.50;99.90;;;;;;5011691;28;20481;-73
2022/08/26 03:10:24;;;;;;;6.78;1.20;;;20.40;99.90;;;;;;5000318;28;20025;-74
2022/08/26 03:12:50;;;;;;;7.60;1.23;;;20.50;99.90;;;;;;5011435;28;20525;-73
2022/08/26 03:15:18;;;;;;;7.47;1.10;;;20.50;99.90;;;;;;5011751;28;20017;-75
2022/08/26 03:17:45;;;;;;;6.68;1.33;;;20.50;99.90;;;;;;5002488;28;20030;-75
2022/08/26 03:20:11;;;;;;;9.88;1.25;;;20.50;99.90;;;;;;4994656;28;20032;-75
2022/08/26 03:22:38;;;;;;;4.65;1.00;;;20.50;99.90;;;;;;5011341;28;20371;-73
2022/08/26 03:25:07;;;;;;;8.45;1.10;;;20.50;99.90;;;;;;5010289;28;20022;-74
2022/08/26 03:27:33;;;;;;;6.47;1.08;;;20.50;99.90;;;;;;5009409;28;20021;-74
2022/08/26 03:32:44;;;;;;;3.33;1.13;;;20.50;99.90;;;;;;4996794;28;20053;-74
2022/08/26 03:35:11;;;;;;;8.45;1.30;;;20.50;99.90;;;;;;4991733;28;20030;-74
2022/08/26 03:37:37;;;;;;;6.65;1.27;;;20.50;99.90;;;;;;4994751;28;20474;-74
2022/08/26 03:40:06;;;;;;;9.60;1.25;;;20.60;99.90;;;;;;5010889;28;20026;-74
2022/08/26 03:42:33;;;;;;;8.85;1.15;;;20.50;99.90;;;;;;5006417;28;20080;-74
2022/08/26 03:44:58;;;;;;;7.05;1.15;;;20.50;99.90;;;;;;5001182;28;20528;-74
2022/08/26 03:47:24;;;;;;;6.78;1.42;;;20.60;99.90;;;;;;5005427;28;20026;-74
2022/08/26 03:49:49;;;;;;;3.75;1.10;;;20.60;99.90;;;;;;4991451;28;20077;-75
2022/08/26 03:52:15;;;;;;;4.75;1.05;;;20.60;99.90;;;;;;5002993;28;20454;-74
2022/08/26 03:54:40;;;;;;;6.25;1.00;;;20.50;99.90;;;;;;5005803;28;20358;-75
2022/08/26 03:57:07;;;;;;;6.18;1.15;;;20.50;99.90;;;;;;4999227;28;20034;-75
2022/08/26 03:59:33;;;;;;;6.38;1.15;;;20.50;99.90;;;;;;5002628;28;20033;-74
2022/08/26 04:01:59;;;;;;;3.95;0.90;;;20.50;99.90;;;;;;4999619;28;20034;-74
2022/08/26 04:04:24;;;;;;;4.53;0.90;;;20.50;99.90;;;;;;5004779;28;20025;-74
2022/08/26 04:06:57;;;;;;;6.43;1.08;;;20.50;99.90;;;;;;5006779;28;20079;-74
2022/08/26 04:09:23;;;;;;;6.82;0.98;;;20.60;99.90;;;;;;5011050;28;20076;-76
2022/08/26 04:11:49;;;;;;;8.32;1.00;;;20.50;99.90;;;;;;5008952;28;20034;-74
2022/08/26 04:14:18;;;;;;;4.43;1.20;;;20.60;99.90;;;;;;5002358;28;20403;-74
2022/08/26 04:16:45;;;;;;;3.55;1.10;;;20.60;99.90;;;;;;5007304;28;20022;-74
2022/08/26 04:19:11;;;;;;;3.40;0.80;;;20.60;99.90;;;;;;4999566;28;20085;-74
2022/08/26 04:21:38;;;;;;;6.10;1.05;;;20.60;99.90;;;;;;4994758;28;20038;-74
2022/08/26 04:24:04;;;;;;;6.70;1.48;;;20.60;99.90;;;;;;5010126;28;20026;-75
2022/08/26 04:26:35;;;;;;;8.15;1.20;;;20.50;99.90;;;;;;5006583;28;20018;-74
2022/08/26 04:29:07;;;;;;;7.15;1.10;;;20.50;99.90;;;;;;5010315;28;20034;-75
2022/08/26 04:31:34;;;;;;;7.72;1.25;;;20.50;99.90;;;;;;5010751;28;20030;-74
2022/08/26 04:34:00;;;;;;;5.05;1.00;;;20.50;99.90;;;;;;4992610;28;20385;-73
2022/08/26 04:36:26;;;;;;;8.45;1.08;;;20.50;99.90;;;;;;4999176;28;20112;-74
2022/08/26 04:38:52;;;;;;;13.05;1.30;;;20.40;99.90;;;;;;5003724;28;20097;-74
2022/08/26 04:41:18;;;;;;;13.50;1.30;;;20.40;99.90;;;;;;5007985;28;20052;-74
2022/08/26 04:43:46;;;;;;;8.85;1.75;;;20.40;99.90;;;;;;5011628;28;20040;-75
2022/08/26 04:46:14;;;;;;;9.88;1.40;;;20.40;99.90;;;;;;5007663;28;20053;-74
2022/08/26 04:48:41;;;;;;;13.73;1.80;;;20.40;99.90;;;;;;5010870;28;20025;-75
2022/08/26 04:51:07;;;;;;;11.15;1.38;;;20.40;99.90;;;;;;5012251;28;20033;-74
2022/08/26 04:53:32;;;;;;;10.02;1.63;;;20.40;99.90;;;;;;5002500;28;20017;-74
2022/08/26 04:55:58;;;;;;;12.60;2.03;;;20.40;99.90;;;;;;5012404;28;20014;-75
2022/08/26 04:58:24;;;;;;;14.50;1.50;;;20.40;99.90;;;;;;5001194;28;20087;-74
2022/08/26 05:00:52;;;;;;;9.20;1.83;;;20.30;99.90;;;;;;5008231;28;20038;-75
2022/08/26 05:03:18;;;;;;;8.57;1.60;;;20.30;99.90;;;;;;5013587;28;20025;-75
2022/08/26 05:05:45;;;;;;;6.15;1.20;;;20.30;99.90;;;;;;5007113;28;20045;-74
2022/08/26 05:08:13;;;;;;;9.35;1.10;;;20.30;99.90;;;;;;5009230;28;20026;-74
2022/08/26 05:10:41;;;;;;;7.45;1.42;;;20.30;99.90;;;;;;5012866;28;20025;-74
2022/08/26 05:13:07;;;;;;;9.93;1.50;;;20.30;99.90;;;;;;5010856;28;20022;-75
2022/08/26 05:15:34;;;;;;;9.52;1.30;;;20.30;99.90;;;;;;5009823;28;20050;-74
2022/08/26 05:18:04;;;;;;;8.02;1.50;;;20.30;99.90;;;;;;5009574;28;20097;-74
2022/08/26 05:20:31;;;;;;;9.35;1.52;;;20.40;99.90;;;;;;5010118;28;20394;-74
2022/08/26 05:22:59;;;;;;;10.00;1.30;;;20.40;99.90;;;;;;5013141;28;20030;-73
2022/08/26 05:25:26;;;;;;;4.90;1.17;;;20.40;99.90;;;;;;5011127;28;20021;-73
2022/08/26 05:27:52;;;;;;;6.93;1.20;;;20.50;99.90;;;;;;5013679;28;20030;-72
2022/08/26 05:30:18;;;;;;;8.38;1.10;;;20.50;99.90;;;;;;5014172;28;20072;-73
2022/08/26 05:32:47;;;;;;;11.05;1.10;;;20.50;99.90;;;;;;5008878;28;20096;-73
2022/08/26 05:35:13;;;;;;;9.77;1.42;;;20.50;99.90;;;;;;5011446;28;20129;-77
2022/08/26 05:37:39;;;;;;;10.27;1.60;;;20.50;99.90;;;;;;5012728;28;20101;-73
2022/08/26 05:40:05;;;;;;;7.50;0.98;;;20.40;99.90;;;;;;5010652;28;20029;-74
2022/08/26 05:42:31;;;;;;;8.60;1.20;;;20.40;99.90;;;;;;5012931;28;20053;-74
2022/08/26 05:44:57;;;;;;;7.55;1.20;;;20.40;99.90;;;;;;5012112;28;20026;-74
2022/08/26 05:47:23;;;;;;;8.98;1.27;;;20.40;99.90;;;;;;5003183;28;20044;-74
2022/08/26 05:49:49;;;;;;;6.97;1.25;;;20.40;99.90;;;;;;5007722;28;20026;-74
2022/08/26 05:52:14;;;;;;;5.20;1.10;;;20.40;99.90;;;;;;5011685;28;20022;-74
2022/08/26 05:54:40;;;;;;;10.23;1.30;;;20.40;99.90;;;;;;5008217;28;20033;-74
2022/08/26 05:57:06;;;;;;;11.43;1.33;;;20.40;99.90;;;;;;5010597;28;20104;-74
2022/08/26 05:59:31;;;;;;;10.20;1.50;;;20.40;99.90;;;;;;5007381;28;20068;-74
2022/08/26 06:01:58;;;;;;;11.90;1.50;;;20.50;99.90;;;;;;5004427;28;20034;-74
2022/08/26 06:04:24;;;;;;;8.98;1.30;;;20.50;99.90;;;;;;5011623;28;20433;-76
2022/08/26 06:06:50;;;;;;;7.05;1.15;;;20.60;99.90;;;;;;5012046;28;20018;-75
2022/08/26 06:09:16;;;;;;;14.00;1.30;;;20.60;99.90;;;;;;5010241;28;20478;-75
2022/08/26 06:11:41;;;;;;;10.38;1.50;;;20.50;99.90;;;;;;5012494;28;20022;-76
2022/08/26 06:14:08;;;;;;;7.80;1.00;;;20.60;99.90;;;;;;5012750;28;20029;-76
2022/08/26 06:16:38;;;;;;;7.78;1.08;;;20.60;99.90;;;;;;5011875;28;20025;-75
2022/08/26 06:19:05;;;;;;;13.43;1.30;;;20.60;99.90;;;;;;5011383;28;20402;-76
2022/08/26 06:21:37;;;;;;;9.68;1.10;;;20.60;99.90;;;;;;5011317;28;20042;-75
2022/08/26 06:27:00;;;;;;;11.02;1.30;;;20.60;99.90;;;;;;4995823;28;20053;-75
2022/08/26 06:29:28;;;;;;;7.60;0.90;;;20.60;99.90;;;;;;5008804;28;20394;-73
2022/08/26 06:31:55;;;;;;;7.35;1.10;;;20.60;99.90;;;;;;4997456;28;20073;-73
2022/08/26 06:34:21;;;;;;;5.90;1.13;;;20.60;99.90;;;;;;5007183;28;20462;-73
2022/08/26 06:36:48;;;;;;;12.93;1.80;;;20.60;99.90;;;;;;5006350;28;20097;-74
2022/08/26 06:39:15;;;;;;;5.10;0.93;;;20.70;99.90;;;;;;5010954;28;20022;-74
2022/08/26 06:41:43;;;;;;;7.45;1.10;;;20.70;99.90;;;;;;5005069;28;20061;-73
2022/08/26 06:44:11;;;;;;;8.80;1.00;;;20.70;99.90;;;;;;5011047;28;20044;-73
2022/08/26 06:46:36;;;;;;;9.00;1.50;;;20.70;99.90;;;;;;5009751;28;20108;-73
2022/08/26 06:49:03;;;;;;;16.50;1.73;;;20.60;99.90;;;;;;5011071;28;20085;-74
2022/08/26 06:51:31;;;;;;;11.15;1.60;;;20.60;99.90;;;;;;5003249;28;20061;-74
2022/08/26 06:53:59;;;;;;;8.20;1.42;;;20.60;99.90;;;;;;5011667;28;20026;-73
2022/08/26 06:56:28;;;;;;;7.85;0.88;;;20.60;99.90;;;;;;5009899;28;20026;-73
2022/08/26 06:58:54;;;;;;;8.85;1.10;;;20.60;99.90;;;;;;5006356;28;20486;-74
2022/08/26 07:01:23;;;;;;;11.43;1.42;;;20.60;99.90;;;;;;5011219;28;20100;-73
2022/08/26 07:03:51;;;;;;;7.85;1.02;;;20.60;99.90;;;;;;5006981;28;20470;-75
2022/08/26 07:06:18;;;;;;;7.13;1.00;;;20.50;99.90;;;;;;5004911;28;20444;-74
2022/08/26 07:08:45;;;;;;;5.18;1.00;;;20.60;99.90;;;;;;5006690;28;20018;-74
2022/08/26 07:11:12;;;;;;;6.40;1.10;;;20.60;99.90;;;;;;5006592;28;20048;-74
2022/08/26 07:13:37;;;;;;;6.43;1.05;;;20.70;99.90;;;;;;5009184;28;20030;-73
2022/08/26 07:16:08;;;;;;;5.30;0.70;;;20.70;99.90;;;;;;5010256;28;20092;-74
2022/08/26 07:18:35;;;;;;;4.05;0.70;;;20.70;99.90;;;;;;5009954;28;20486;-73
2022/08/26 07:21:03;;;;;;;6.35;0.90;;;20.60;99.90;;;;;;5000283;28;20117;-73
2022/08/26 07:23:29;;;;;;;6.25;1.20;;;20.60;99.90;;;;;;5011135;28;20108;-73
2022/08/26 07:25:55;;;;;;;5.82;0.95;;;20.60;99.90;;;;;;5004588;28;20105;-72
2022/08/26 07:28:21;;;;;;;6.43;0.82;;;20.60;99.90;;;;;;5007780;28;20025;-73
2022/08/26 07:30:47;;;;;;;7.70;0.90;;;20.60;99.90;;;;;;5000675;28;20034;-74
2022/08/26 07:33:13;;;;;;;5.70;0.80;;;20.50;99.90;;;;;;5008469;28;20132;-74
2022/08/26 07:35:39;;;;;;;7.85;1.42;;;20.40;99.90;;;;;;5004422;28;20623;-75
2022/08/26 07:38:04;;;;;;;5.45;0.70;;;20.50;99.90;;;;;;5002384;28;20025;-73
2022/08/26 07:40:30;;;;;;;7.28;1.00;;;20.50;99.90;;;;;;5009745;28;20048;-73
2022/08/26 07:42:56;;;;;;;8.23;1.13;;;20.50;99.90;;;;;;5010859;28;20049;-73
2022/08/26 07:45:22;;;;;;;4.90;0.80;;;20.50;99.90;;;;;;5005014;28;20441;-74
2022/08/26 07:47:48;;;;;;;9.13;1.10;;;20.50;99.90;;;;;;5008317;28;20054;-74
2022/08/26 07:50:13;;;;;;;3.17;0.85;;;20.50;99.90;;;;;;5001425;28;20026;-74
2022/08/26 07:52:39;;;;;;;6.18;0.80;;;20.50;99.90;;;;;;5003782;28;20022;-74
2022/08/26 07:55:08;;;;;;;5.60;1.08;;;20.40;99.90;;;;;;5004095;28;20096;-73
2022/08/26 07:57:35;;;;;;;5.45;0.80;;;20.50;99.90;;;;;;5008261;28;20535;-74
2022/08/26 08:00:02;;;;;;;5.25;0.90;;;20.40;99.90;;;;;;5010253;28;20060;-74
2022/08/26 08:02:28;;;;;;;7.57;1.10;;;20.40;99.90;;;;;;5003455;28;20047;-73
2022/08/26 08:04:56;;;;;;;4.47;1.20;;;20.40;99.90;;;;;;5008621;28;20489;-74
2022/08/26 08:07:22;;;;;;;6.65;0.80;;;20.40;99.90;;;;;;5003647;28;20026;-74
2022/08/26 08:09:48;;;;;;;8.10;0.80;;;20.50;99.90;;;;;;5007359;28;20083;-74
2022/08/26 08:12:15;;;;;;;4.32;0.75;;;20.50;99.90;;;;;;5009722;28;20069;-74
2022/08/26 08:14:44;;;;;;;6.22;0.80;;;20.50;99.90;;;;;;5007846;28;20035;-71
2022/08/26 08:17:10;;;;;;;6.50;0.80;;;20.50;99.90;;;;;;5008161;28;20029;-71
2022/08/26 08:19:35;;;;;;;6.97;1.33;;;20.60;99.90;;;;;;5005371;28;20394;-73
2022/08/26 08:22:03;;;;;;;7.05;1.10;;;20.60;99.90;;;;;;5009225;28;20045;-75
2022/08/26 08:24:32;;;;;;;8.30;1.00;;;20.60;99.90;;;;;;5008444;28;20049;-75
2022/08/26 08:26:59;;;;;;;7.30;0.98;;;20.60;99.90;;;;;;5006275;28;20041;-75
2022/08/26 08:29:28;;;;;;;5.43;1.05;;;20.70;99.90;;;;;;5006856;28;20621;-75
2022/08/26 08:31:57;;;;;;;6.32;0.70;;;20.70;99.90;;;;;;5006730;28;20040;-73
2022/08/26 08:34:25;;;;;;;4.35;0.95;;;20.70;99.90;;;;;;5007980;28;20093;-74
2022/08/26 08:36:50;;;;;;;3.55;0.93;;;20.70;99.90;;;;;;5003454;28;20030;-74
2022/08/26 08:39:17;;;;;;;5.43;0.80;;;20.80;99.90;;;;;;4993306;28;20029;-74
2022/08/26 08:42:05;;;;;;;7.57;1.00;;;20.80;99.90;;;;;;5007076;28;20045;-75
2022/08/26 08:44:32;;;;;;;5.80;1.02;;;20.90;99.90;;;;;;5008716;28;20088;-74
2022/08/26 08:47:03;;;;;;;3.88;0.70;;;20.90;99.90;;;;;;5003810;28;20030;-75
2022/08/26 08:49:31;;;;;;;4.05;0.77;;;20.90;99.90;;;;;;5002581;28;20073;-74
2022/08/26 08:52:12;;;;;;;4.03;0.70;;;20.90;99.90;;;;;;5009021;28;20026;-75
2022/08/26 08:54:37;;;;;;;3.28;0.75;;;20.90;99.90;;;;;;5001527;28;20425;-75
2022/08/26 08:57:15;;;;;;;2.80;0.75;;;21.00;99.90;;;;;;4998249;28;20022;-74
2022/08/26 08:59:52;;;;;;;6.65;0.85;;;21.10;99.90;;;;;;5008642;28;20150;-74
2022/08/26 09:02:25;;;;;;;4.63;0.77;;;21.20;99.90;;;;;;5005363;28;20029;-74
2022/08/26 09:05:10;;;;;;;6.35;0.75;;;21.40;99.90;;;;;;5004354;28;20862;-74
2022/08/26 09:07:51;;;;;;;8.02;0.88;;;21.60;99.90;;;;;;5004990;28;20088;-75
2022/08/26 09:10:23;;;;;;;5.68;0.95;;;21.70;99.90;;;;;;5009876;28;20030;-75
2022/08/26 09:12:49;;;;;;;4.07;0.73;;;21.70;99.90;;;;;;5009295;28;20049;-73
2022/08/26 09:15:35;;;;;;;5.55;0.90;;;21.70;99.90;;;;;;5003714;28;20026;-73
2022/08/26 09:18:38;;;;;;;8.95;1.17;;;21.70;99.90;;;;;;5004239;28;20022;-73
2022/08/26 09:21:07;;;;;;;10.93;1.45;;;21.60;99.90;;;;;;5000078;28;20033;-73
2022/08/26 09:23:38;;;;;;;6.32;1.00;;;21.40;99.90;;;;;;5003929;28;20044;-73
2022/08/26 09:26:18;;;;;;;5.05;1.10;;;21.20;99.90;;;;;;5007031;28;20025;-74
2022/08/26 09:28:53;;;;;;;6.47;1.17;;;21.10;99.90;;;;;;5000768;28;20363;-74
2022/08/26 09:31:21;;;;;;;7.50;1.20;;;20.90;99.90;;;;;;5023558;28;20022;-74
2022/08/26 09:33:48;;;;;;;15.50;2.15;;;20.90;99.90;;;;;;5004489;28;20037;-75
2022/08/26 09:36:37;;;;;;;7.95;1.25;;;20.90;99.90;;;;;;5010107;28;20025;-74
2022/08/26 09:39:04;;;;;;;5.28;1.20;;;20.90;99.90;;;;;;5005914;28;20486;-75
2022/08/26 09:41:34;;;;;;;5.60;1.42;;;20.90;99.90;;;;;;5005190;28;20033;-75
2022/08/26 09:44:03;;;;;;;10.18;1.65;;;20.90;99.90;;;;;;5007567;28;20033;-75
2022/08/26 09:46:30;;;;;;;10.23;1.30;;;20.90;99.90;;;;;;5012534;28;20109;-75
2022/08/26 09:48:56;;;;;;;6.50;1.60;;;21.00;99.90;;;;;;5009206;28;20037;-74
2022/08/26 09:51:29;;;;;;;6.82;1.30;;;21.10;99.90;;;;;;5011547;28;20026;-74
2022/08/26 09:53:57;;;;;;;3.97;1.10;;;21.10;99.90;;;;;;5009062;28;20029;-75
2022/08/26 09:56:35;;;;;;;6.88;1.48;;;21.10;99.90;;;;;;5011223;28;20048;-74
2022/08/26 09:59:01;;;;;;;6.45;1.65;;;21.10;99.90;;;;;;5012176;28;20478;-74
2022/08/26 10:01:27;;;;;;;10.70;1.63;;;21.00;99.90;;;;;;5005303;28;20126;-76
2022/08/26 10:04:07;;;;;;;6.15;1.50;;;20.90;99.90;;;;;;4997948;28;20109;-74
2022/08/26 10:06:39;;;;;;;6.50;1.20;;;20.80;99.90;;;;;;5001329;28;20088;-75
2022/08/26 10:09:06;;;;;;;9.95;1.40;;;20.90;99.90;;;;;;5006839;28;20402;-74
2022/08/26 10:11:41;;;;;;;5.85;1.40;;;20.80;99.90;;;;;;5007535;28;20038;-74
2022/08/26 10:14:21;;;;;;;6.97;1.70;;;20.90;99.90;;;;;;5004659;28;20080;-73
2022/08/26 10:17:02;;;;;;;11.55;1.55;;;20.90;99.90;;;;;;5010171;28;20088;-75
2022/08/26 10:19:36;;;;;;;8.38;1.48;;;21.00;99.90;;;;;;5003511;28;20085;-74
2022/08/26 10:22:10;;;;;;;8.03;1.30;;;21.00;99.90;;;;;;5009680;28;20038;-75
2022/08/26 10:24:41;;;;;;;5.65;1.10;;;21.00;99.90;;;;;;5005147;28;20026;-74
2022/08/26 10:27:20;;;;;;;8.45;1.55;;;21.10;99.90;;;;;;5006309;28;20111;-75
2022/08/26 10:29:48;;;;;;;10.13;1.67;;;21.10;99.90;;;;;;5008651;28;20108;-77
2022/08/26 10:32:29;;;;;;;9.23;1.60;;;21.20;99.90;;;;;;5006651;28;20033;-75
2022/08/26 10:34:55;;;;;;;7.53;1.30;;;21.30;99.90;;;;;;4997330;28;20085;-75
2022/08/26 10:37:29;;;;;;;5.00;1.23;;;21.30;99.90;;;;;;5005260;28;20474;-76
2022/08/26 10:40:11;;;;;;;6.93;1.27;;;21.30;99.90;;;;;;5011650;28;20638;-75
2022/08/26 10:42:41;;;;;;;7.20;1.30;;;21.30;99.90;;;;;;5010882;28;20128;-74
2022/08/26 10:45:07;;;;;;;7.78;1.40;;;21.30;99.90;;;;;;5010187;28;20034;-76
2022/08/26 10:47:59;;;;;;;5.47;1.38;;;21.30;99.90;;;;;;5002584;28;20073;-76
2022/08/26 10:50:36;;;;;;;3.55;1.33;;;21.20;99.90;;;;;;5009603;28;20037;-74
2022/08/26 10:53:44;;;;;;;8.27;1.45;;;21.30;99.90;;;;;;5009640;28;20037;-76
2022/08/26 10:56:21;;;;;;;5.63;1.17;;;21.20;99.90;;;;;;4994300;28;20375;-75
2022/08/26 10:59:11;;;;;;;7.78;1.33;;;21.20;99.90;;;;;;5008984;28;20074;-76
2022/08/26 11:01:57;;;;;;;6.43;1.25;;;21.30;99.90;;;;;;5003924;28;20038;-75
2022/08/26 11:04:41;;;;;;;6.65;1.30;;;21.40;99.90;;;;;;5010880;28;20038;-74
2022/08/26 11:07:45;;;;;;;5.97;1.17;;;21.50;99.90;;;;;;5010681;28;20109;-75
2022/08/26 11:10:19;;;;;;;9.63;1.23;;;21.60;99.90;;;;;;5006470;28;20068;-75
2022/08/26 11:12:47;;;;;;;4.65;1.23;;;21.60;99.90;;;;;;5004503;28;20019;-73
2022/08/26 11:15:19;;;;;;;9.90;1.20;;;21.70;99.90;;;;;;4997959;28;20033;-72
2022/08/26 11:17:44;;;;;;;2.63;1.00;;;21.80;99.90;;;;;;5005953;28;20018;-74
2022/08/26 11:20:40;;;;;;;6.78;1.40;;;21.90;99.90;;;;;;5007976;28;20496;-74
2022/08/26 11:23:11;;;;;;;7.40;1.30;;;22.00;99.90;;;;;;5002493;28;20030;-74
2022/08/26 11:26:06;;;;;;;5.40;1.10;;;22.10;99.90;;;;;;5007268;28;20035;-72
2022/08/26 11:28:34;;;;;;;10.05;1.55;;;22.10;99.90;;;;;;5004129;28;20518;-75
2022/08/26 11:31:01;;;;;;;9.05;1.40;;;22.10;99.90;;;;;;4995982;28;20014;-74
2022/08/26 11:33:50;;;;;;;4.40;1.33;;;22.10;99.90;;;;;;5000607;28;20394;-75
2022/08/26 11:36:38;;;;;;;8.25;1.52;;;22.00;99.90;;;;;;5001134;28;20026;-75
2022/08/26 11:39:34;;;;;;;7.18;1.15;;;22.00;99.90;;;;;;5007924;28;20030;-75
2022/08/26 11:42:29;;;;;;;15.00;1.40;;;22.00;99.90;;;;;;5005298;28;20108;-74
2022/08/26 11:44:56;;;;;;;7.25;1.45;;;22.00;99.90;;;;;;4995726;28;20030;-74
2022/08/26 11:47:28;;;;;;;7.80;1.48;;;22.00;99.90;;;;;;5013747;28;20034;-74
2022/08/26 11:50:09;;;;;;;8.70;1.35;;;21.90;99.90;;;;;;4998895;28;20036;-74
2022/08/26 11:52:35;;;;;;;5.30;1.02;;;22.00;99.90;;;;;;5003180;28;20395;-74
2022/08/26 11:55:05;;;;;;;8.80;1.65;;;21.90;99.90;;;;;;5010034;28;20022;-74
2022/08/26 11:57:34;;;;;;;7.68;1.27;;;22.00;99.90;;;;;;5005122;28;20035;-73
2022/08/26 12:00:01;;;;;;;11.27;1.25;;;21.90;99.90;;;;;;5005116;28;20018;-74
2022/08/26 12:02:27;;;;;;;8.60;1.38;;;21.90;99.90;;;;;;5007343;28;20030;-74
2022/08/26 12:04:55;;;;;;;9.43;1.33;;;22.00;99.90;;;;;;5004652;28;20026;-73
2022/08/26 12:07:26;;;;;;;8.73;1.45;;;22.10;99.90;;;;;;5007802;28;20361;-74
2022/08/26 12:10:00;;;;;;;7.13;1.40;;;22.10;99.90;;;;;;5010704;28;20036;-73
2022/08/26 12:12:32;;;;;;;5.35;1.27;;;22.10;99.90;;;;;;5002795;28;20061;-73
2022/08/26 12:15:12;;;;;;;9.07;1.60;;;22.10;99.90;;;;;;5011372;28;20033;-74
2022/08/26 12:17:39;;;;;;;6.55;1.63;;;22.10;99.90;;;;;;4994873;28;20482;-74
2022/08/26 12:20:15;;;;;;;8.75;1.33;;;22.10;99.90;;;;;;5007205;28;20402;-74
2022/08/26 12:22:42;;;;;;;9.80;1.80;;;22.10;99.90;;;;;;5000985;28;20506;-74
2022/08/26 12:25:08;;;;;;;12.00;1.50;;;22.10;99.90;;;;;;4998220;28;20027;-74
2022/08/26 12:27:40;;;;;;;4.05;1.30;;;22.10;99.90;;;;;;5005196;28;20019;-75
2022/08/26 12:30:14;;;;;;;6.28;1.25;;;22.10;99.90;;;;;;5006666;28;20033;-73
2022/08/26 12:32:46;;;;;;;5.05;1.05;;;22.20;99.90;;;;;;5008378;28;20084;-74
2022/08/26 12:35:16;;;;;;;5.20;1.30;;;22.20;99.90;;;;;;5011221;28;20430;-75
2022/08/26 12:37:45;;;;;;;6.65;1.27;;;22.30;99.90;;;;;;4998331;28;20023;-74
2022/08/26 12:40:29;;;;;;;6.72;1.30;;;22.50;99.90;;;;;;5003505;28;20508;-74
2022/08/26 12:42:57;;;;;;;6.80;1.15;;;22.60;99.90;;;;;;5006397;28;20042;-74
2022/08/26 12:45:54;;;;;;;6.32;1.30;;;22.60;99.90;;;;;;5002133;28;20052;-74
2022/08/26 12:48:34;;;;;;;6.03;1.27;;;22.60;99.90;;;;;;5002734;28;20080;-74
2022/08/26 12:51:01;;;;;;;7.03;1.23;;;22.50;99.90;;;;;;5002520;28;20057;-74
2022/08/26 12:53:32;;;;;;;9.57;1.42;;;22.50;99.90;;;;;;5008700;28;20011;-73
2022/08/26 12:56:02;;;;;;;6.15;1.23;;;22.50;99.90;;;;;;5009572;28;20030;-73
2022/08/26 12:58:36;;;;;;;7.43;1.20;;;22.50;99.90;;;;;;4998998;28;20026;-75
2022/08/26 13:01:05;;;;;;;6.13;1.30;;;22.60;99.90;;;;;;4994445;28;20042;-73
2022/08/26 13:03:33;;;;;;;7.95;1.33;;;22.50;99.90;;;;;;5006920;28;20608;-74
2022/08/26 13:06:21;;;;;;;8.18;1.42;;;22.60;99.90;;;;;;5000552;28;20018;-74